createdAt,value
2019-02-19T00:01:08.202Z,22.36
2019-02-19T00:03:36.772Z,22.34
2019-02-19T00:06:04.957Z,22.37
2019-02-19T00:08:33.487Z,22.36
2019-02-19T00:11:02.053Z,22.34
2019-02-19T00:13:31.583Z,22.36
2019-02-19T00:15:59.936Z,22.31
2019-02-19T00:18:27.385Z,22.29
2019-02-19T00:20:55.756Z,22.20
2019-02-19T00:23:23.704Z,22.24
2019-02-19T00:25:51.973Z,22.23
2019-02-19T00:28:21.110Z,22.23
2019-02-19T00:30:49.404Z,22.21
2019-02-19T00:33:17.653Z,22.18
2019-02-19T00:35:46.218Z,22.12
2019-02-19T00:39:33.966Z,22.22
2019-02-19T00:42:01.198Z,22.08
2019-02-19T00:44:28.920Z,22.10
2019-02-19T00:46:56.147Z,22.07
2019-02-19T00:49:23.723Z,22.13
2019-02-19T00:51:51.717Z,22.09
2019-02-19T00:54:19.172Z,22.07
2019-02-19T00:56:46.405Z,22.04
2019-02-19T00:59:13.740Z,22.03
2019-02-19T01:01:41.434Z,22.01
2019-02-19T01:04:08.711Z,22.01
2019-02-19T01:06:36.248Z,22.01
2019-02-19T01:09:04.584Z,22.06
2019-02-19T01:11:32.192Z,22.01
2019-02-19T01:13:59.652Z,22.00
2019-02-19T01:16:27.128Z,21.98
2019-02-19T01:18:54.822Z,22.03
2019-02-19T01:21:22.038Z,22.03
2019-02-19T01:23:49.250Z,21.97
2019-02-19T01:26:16.424Z,21.96
2019-02-19T01:28:44.146Z,21.91
2019-02-19T01:31:11.842Z,21.92
2019-02-19T01:33:39.026Z,21.90
2019-02-19T01:36:06.593Z,21.82
2019-02-19T01:38:34.373Z,21.73
2019-02-19T01:41:01.756Z,21.73
2019-02-19T01:43:29.221Z,21.79
2019-02-19T01:45:56.445Z,21.87
2019-02-19T01:48:23.949Z,21.85
2019-02-19T01:50:51.389Z,21.82
2019-02-19T01:53:18.848Z,21.88
2019-02-19T01:55:46.785Z,21.85
2019-02-19T01:58:14.269Z,21.85
2019-02-19T02:00:41.482Z,21.88
2019-02-19T02:03:09.034Z,21.86
2019-02-19T02:05:36.222Z,21.88
2019-02-19T02:08:03.420Z,21.78
2019-02-19T02:10:30.647Z,21.82
2019-02-19T02:12:58.475Z,21.75
2019-02-19T02:15:25.256Z,21.77
2019-02-19T02:17:52.720Z,21.72
2019-02-19T02:20:20.220Z,21.68
2019-02-19T02:22:47.443Z,21.77
2019-02-19T02:25:14.711Z,21.71
2019-02-19T02:27:42.469Z,21.70
2019-02-19T02:30:09.688Z,21.68
2019-02-19T02:32:37.602Z,21.68
2019-02-19T02:35:05.291Z,21.80
2019-02-19T02:37:33.500Z,21.71
2019-02-19T02:40:01.688Z,21.68
2019-02-19T02:42:29.421Z,21.70
2019-02-19T02:44:56.663Z,21.72
2019-02-19T02:47:24.923Z,21.65
2019-02-19T02:49:53.998Z,21.68
2019-02-19T02:52:22.615Z,21.64
2019-02-19T02:54:56.334Z,21.64
2019-02-19T02:57:42.390Z,21.67
2019-02-19T03:00:12.519Z,21.56
2019-02-19T03:02:40.962Z,21.56
2019-02-19T03:05:09.383Z,21.54
2019-02-19T03:07:48.414Z,21.59
2019-02-19T03:10:17.723Z,21.56
2019-02-19T03:12:46.712Z,21.64
2019-02-19T03:15:16.492Z,21.63
2019-02-19T03:17:45.236Z,21.61
2019-02-19T03:20:13.473Z,21.54
2019-02-19T03:22:40.710Z,21.43
2019-02-19T03:25:08.429Z,21.55
2019-02-19T03:27:36.429Z,21.52
2019-02-19T03:30:05.067Z,21.49
2019-02-19T03:32:32.788Z,21.49
2019-02-19T03:35:00.942Z,21.54
2019-02-19T03:37:29.494Z,21.53
2019-02-19T03:39:57.314Z,21.51
2019-02-19T03:42:24.837Z,21.53
2019-02-19T03:44:53.118Z,21.36
2019-02-19T03:47:20.886Z,21.47
2019-02-19T03:49:49.372Z,21.46
2019-02-19T03:52:16.832Z,21.44
2019-02-19T03:54:44.350Z,21.45
2019-02-19T03:57:11.886Z,21.52
2019-02-19T03:59:40.122Z,21.52
2019-02-19T04:02:09.195Z,21.43
2019-02-19T04:04:37.978Z,21.49
2019-02-19T04:07:06.508Z,21.43
2019-02-19T04:09:35.259Z,21.45
2019-02-19T04:12:02.752Z,21.43
2019-02-19T04:14:30.256Z,21.47
2019-02-19T04:16:58.229Z,21.40
2019-02-19T04:19:26.203Z,21.38
2019-02-19T04:21:54.949Z,21.36
2019-02-19T04:24:23.769Z,21.43
2019-02-19T04:26:51.597Z,21.43
2019-02-19T04:29:19.417Z,21.45
2019-02-19T04:31:47.487Z,21.40
2019-02-19T04:34:15.567Z,21.32
2019-02-19T04:36:44.075Z,21.37
2019-02-19T04:39:11.573Z,21.37
2019-02-19T04:41:38.940Z,21.40
2019-02-19T04:44:06.415Z,21.42
2019-02-19T04:46:33.875Z,21.44
2019-02-19T04:49:01.348Z,21.42
2019-02-19T04:51:28.616Z,21.42
2019-02-19T04:53:57.357Z,21.48
2019-02-19T04:56:25.105Z,21.37
2019-02-19T04:58:52.868Z,21.28
2019-02-19T05:01:20.491Z,21.34
2019-02-19T05:03:48.640Z,21.41
2019-02-19T05:06:15.958Z,21.37
2019-02-19T05:08:44.648Z,21.32
2019-02-19T05:11:12.665Z,21.39
2019-02-19T05:13:40.407Z,21.41
2019-02-19T05:16:07.690Z,21.42
2019-02-19T05:18:35.432Z,21.48
2019-02-19T05:21:03.373Z,21.49
2019-02-19T05:23:32.082Z,21.42
2019-02-19T05:26:00.306Z,21.46
2019-02-19T05:28:28.862Z,21.44
2019-02-19T05:30:56.553Z,21.47
2019-02-19T05:33:24.427Z,21.45
2019-02-19T05:35:51.701Z,21.46
2019-02-19T05:38:19.852Z,21.42
2019-02-19T05:40:47.527Z,21.42
2019-02-19T05:43:15.335Z,21.46
2019-02-19T05:45:42.676Z,21.40
2019-02-19T05:48:10.239Z,21.43
2019-02-19T05:50:39.394Z,21.35
2019-02-19T05:53:07.530Z,21.36
2019-02-19T05:55:35.984Z,21.33
2019-02-19T05:58:03.463Z,21.38
2019-02-19T06:00:31.623Z,21.41
2019-02-19T06:03:00.027Z,21.45
2019-02-19T06:05:28.018Z,21.40
2019-02-19T06:07:55.712Z,21.44
2019-02-19T06:10:23.056Z,21.46
2019-02-19T06:12:50.261Z,21.49
2019-02-19T06:15:18.400Z,21.50
2019-02-19T06:17:46.140Z,21.51
2019-02-19T06:20:14.045Z,21.47
2019-02-19T06:22:41.650Z,21.46
2019-02-19T06:25:09.302Z,21.45
2019-02-19T06:27:36.768Z,21.35
2019-02-19T06:30:07.546Z,21.33
2019-02-19T06:32:34.787Z,21.46
2019-02-19T06:35:02.803Z,21.49
2019-02-19T06:37:30.017Z,21.36
2019-02-19T06:39:57.286Z,21.47
2019-02-19T06:42:25.235Z,21.46
2019-02-19T06:44:53.185Z,21.60
2019-02-19T06:47:21.214Z,21.66
2019-02-19T06:49:49.913Z,21.58
2019-02-19T06:52:18.329Z,21.65
2019-02-19T06:54:47.699Z,21.62
2019-02-19T06:57:16.148Z,21.57
2019-02-19T06:59:44.293Z,21.59
2019-02-19T07:02:25.025Z,21.52
2019-02-19T07:04:55.777Z,21.63
2019-02-19T07:07:23.893Z,21.78
2019-02-19T07:09:52.014Z,21.84
2019-02-19T07:12:19.389Z,21.92
2019-02-19T07:14:46.688Z,22.05
2019-02-19T07:17:15.910Z,21.95
2019-02-19T07:19:44.279Z,22.02
2019-02-19T07:22:11.645Z,22.05
2019-02-19T07:24:40.542Z,21.89
2019-02-19T07:27:09.701Z,21.89
2019-02-19T07:29:39.072Z,21.98
2019-02-19T07:32:08.483Z,21.90
2019-02-19T07:34:37.826Z,21.93
2019-02-19T07:37:06.947Z,22.06
2019-02-19T07:39:36.090Z,22.11
2019-02-19T07:42:04.473Z,22.22
2019-02-19T07:44:33.983Z,22.18
2019-02-19T07:47:02.915Z,22.13
2019-02-19T07:49:31.292Z,22.21
2019-02-19T07:52:01.019Z,22.25
2019-02-19T07:54:30.439Z,22.23
2019-02-19T07:56:58.567Z,22.24
2019-02-19T07:59:26.851Z,22.29
2019-02-19T08:01:54.802Z,22.26
2019-02-19T08:04:22.674Z,22.21
2019-02-19T08:06:50.829Z,22.28
2019-02-19T08:09:19.350Z,22.28
2019-02-19T08:11:47.711Z,22.25
2019-02-19T08:14:15.978Z,22.25
2019-02-19T08:16:44.153Z,22.34
2019-02-19T08:19:11.831Z,22.34
2019-02-19T08:21:41.807Z,22.38
2019-02-19T08:24:10.953Z,22.39
2019-02-19T08:26:39.830Z,22.40
2019-02-19T08:29:13.770Z,22.29
2019-02-19T08:31:39.672Z,22.29
2019-02-19T08:34:09.392Z,22.47
2019-02-19T08:36:38.475Z,22.53
2019-02-19T08:39:05.874Z,22.57
2019-02-19T08:41:35.106Z,22.62
2019-02-19T08:44:04.518Z,22.64
2019-02-19T08:46:33.682Z,22.72
2019-02-19T08:49:03.375Z,22.77
2019-02-19T08:51:31.722Z,22.79
2019-02-19T08:54:01.545Z,22.79
2019-02-19T08:56:29.474Z,22.80
2019-02-19T08:58:58.894Z,22.86
2019-02-19T09:01:26.671Z,22.86
2019-02-19T09:03:54.780Z,22.94
2019-02-19T09:06:23.261Z,23.06
2019-02-19T09:08:51.308Z,23.17
2019-02-19T09:11:19.651Z,23.23
2019-02-19T09:13:48.116Z,23.28
2019-02-19T09:16:15.585Z,23.31
2019-02-19T09:18:43.508Z,23.34
2019-02-19T09:21:11.295Z,23.34
2019-02-19T09:23:39.344Z,23.29
2019-02-19T09:26:06.888Z,23.33
2019-02-19T09:28:34.719Z,23.43
2019-02-19T09:31:01.944Z,23.43
2019-02-19T09:33:29.661Z,23.50
2019-02-19T09:35:57.899Z,23.55
2019-02-19T09:38:26.300Z,23.61
2019-02-19T09:40:54.264Z,23.68
2019-02-19T09:43:21.687Z,23.72
2019-02-19T09:45:49.546Z,23.74
2019-02-19T09:48:17.636Z,23.77
2019-02-19T09:50:45.207Z,23.80
2019-02-19T09:53:13.215Z,23.85
2019-02-19T09:58:22.095Z,23.98
2019-02-19T10:00:49.749Z,23.94
2019-02-19T10:03:18.584Z,23.92
2019-02-19T10:05:48.166Z,23.85
2019-02-19T10:08:16.332Z,23.81
2019-02-19T10:10:44.120Z,23.84
2019-02-19T10:13:12.274Z,23.84
2019-02-19T10:15:41.464Z,23.76
2019-02-19T10:18:10.901Z,23.86
2019-02-19T10:20:42.133Z,23.89
2019-02-19T10:23:11.073Z,23.85
2019-02-19T10:25:39.609Z,23.81
2019-02-19T10:28:09.000Z,23.83
2019-02-19T10:30:38.423Z,23.82
2019-02-19T10:33:09.389Z,23.84
2019-02-19T10:35:40.036Z,23.85
2019-02-19T10:38:10.270Z,23.85
2019-02-19T10:40:39.849Z,23.88
2019-02-19T10:43:09.385Z,23.88
2019-02-19T10:45:37.165Z,23.88
2019-02-19T10:48:05.273Z,23.84
2019-02-19T10:50:33.525Z,23.86
2019-02-19T10:53:02.421Z,23.82
2019-02-19T10:55:30.886Z,23.82
2019-02-19T10:57:59.666Z,23.94
2019-02-19T11:00:27.862Z,23.96
2019-02-19T11:02:56.068Z,23.96
2019-02-19T11:05:24.872Z,23.99
2019-02-19T11:07:56.717Z,24.02
2019-02-19T11:10:25.068Z,24.04
2019-02-19T11:12:53.331Z,24.07
2019-02-19T11:15:22.880Z,24.10
2019-02-19T11:17:52.363Z,24.10
2019-02-19T11:20:20.644Z,24.14
2019-02-19T11:22:49.723Z,24.12
2019-02-19T11:25:18.915Z,24.12
2019-02-19T11:27:47.447Z,24.13
2019-02-19T11:30:16.505Z,24.20
2019-02-19T11:32:45.052Z,24.24
2019-02-19T11:35:14.141Z,24.23
2019-02-19T11:37:42.346Z,24.11
2019-02-19T11:40:11.216Z,24.11
2019-02-19T11:42:39.477Z,24.06
2019-02-19T11:45:11.073Z,24.06
2019-02-19T11:47:39.070Z,24.25
2019-02-19T11:50:07.819Z,24.35
2019-02-19T11:52:36.692Z,24.35
2019-02-19T11:55:05.478Z,24.35
2019-02-19T11:57:33.491Z,24.33
2019-02-19T12:00:02.461Z,24.31
2019-02-19T12:02:32.867Z,24.17
2019-02-19T12:05:01.570Z,24.17
2019-02-19T12:07:29.574Z,24.15
2019-02-19T12:09:57.906Z,24.14
2019-02-19T12:12:26.295Z,24.11
2019-02-19T12:14:54.872Z,24.07
2019-02-19T12:17:23.537Z,24.04
2019-02-19T12:19:52.460Z,24.05
2019-02-19T12:22:21.619Z,24.05
2019-02-19T12:24:50.453Z,24.02
2019-02-19T12:27:18.661Z,24.00
2019-02-19T12:29:48.060Z,23.96
2019-02-19T12:32:18.041Z,23.99
2019-02-19T12:34:48.311Z,24.05
2019-02-19T12:37:19.173Z,24.03
2019-02-19T12:39:49.064Z,24.02
2019-02-19T12:42:19.643Z,24.10
2019-02-19T12:44:48.001Z,24.21
2019-02-19T12:47:17.718Z,24.22
2019-02-19T12:49:48.202Z,24.24
2019-02-19T12:52:18.376Z,24.26
2019-02-19T12:54:49.313Z,24.19
2019-02-19T12:57:19.400Z,24.24
2019-02-19T12:59:56.455Z,24.17
2019-02-19T13:02:20.550Z,24.17
2019-02-19T13:04:51.357Z,24.06
2019-02-19T13:07:21.112Z,24.14
2019-02-19T13:09:53.265Z,24.17
2019-02-19T13:12:23.355Z,24.10
2019-02-19T13:14:52.973Z,24.09
2019-02-19T13:17:23.574Z,24.09
2019-02-19T13:19:53.824Z,24.10
2019-02-19T13:22:22.585Z,24.10
2019-02-19T13:24:50.795Z,24.05
2019-02-19T13:27:19.753Z,24.00
2019-02-19T13:29:47.960Z,24.03
2019-02-19T13:32:16.198Z,24.05
2019-02-19T13:34:46.647Z,24.05
2019-02-19T13:37:16.637Z,24.11
2019-02-19T13:39:46.320Z,24.17
2019-02-19T13:42:16.472Z,24.22
2019-02-19T13:44:45.025Z,24.26
2019-02-19T13:47:15.559Z,24.27
2019-02-19T13:49:47.520Z,24.27
2019-02-19T13:52:27.900Z,24.27
2019-02-19T13:55:03.787Z,24.25
2019-02-19T13:57:32.835Z,24.25
2019-02-19T14:00:03.062Z,24.20
2019-02-19T14:02:33.999Z,24.16
2019-02-19T14:05:03.559Z,24.11
2019-02-19T14:07:34.302Z,24.09
2019-02-19T14:10:03.677Z,24.08
2019-02-19T14:12:32.898Z,24.11
2019-02-19T14:15:12.978Z,24.12
2019-02-19T14:17:42.921Z,24.13
2019-02-19T14:20:31.478Z,24.12
2019-02-19T14:23:20.668Z,23.97
2019-02-19T14:26:12.636Z,24.08
2019-02-19T14:28:58.694Z,24.08
2019-02-19T14:31:46.344Z,24.04
2019-02-19T14:34:36.955Z,23.98
2019-02-19T14:37:24.988Z,23.99
2019-02-19T14:40:12.343Z,23.98
2019-02-19T14:43:03.325Z,23.98
2019-02-19T14:45:50.529Z,24.00
2019-02-19T14:48:39.242Z,24.03
2019-02-19T14:51:31.847Z,24.05
2019-02-19T14:54:20.043Z,24.05
2019-02-19T14:57:11.790Z,23.99
2019-02-19T14:59:58.607Z,23.99
2019-02-19T15:02:41.814Z,23.87
2019-02-19T15:05:31.748Z,23.87
2019-02-19T15:08:18.486Z,23.98
2019-02-19T15:11:26.100Z,23.94
2019-02-19T15:14:12.495Z,23.96
2019-02-19T15:16:51.460Z,23.94
2019-02-19T15:19:42.498Z,23.90
2019-02-19T15:22:27.181Z,23.87
2019-02-19T15:25:10.022Z,23.89
2019-02-19T15:28:01.133Z,23.92
2019-02-19T15:30:53.586Z,23.90
2019-02-19T15:33:54.287Z,23.92
2019-02-19T15:36:35.402Z,23.89
2019-02-19T15:39:21.891Z,23.85
2019-02-19T15:42:18.575Z,23.86
2019-02-19T15:45:06.207Z,23.83
2019-02-19T15:47:53.501Z,23.76
2019-02-19T15:50:41.403Z,23.85
2019-02-19T15:53:24.733Z,23.83
2019-02-19T15:56:07.090Z,23.83
2019-02-19T15:59:14.130Z,23.81
2019-02-19T16:02:02.174Z,23.77
2019-02-19T16:04:40.906Z,23.70
2019-02-19T16:07:24.924Z,23.70
2019-02-19T16:10:18.938Z,23.74
2019-02-19T16:13:09.651Z,23.74
2019-02-19T16:16:00.496Z,23.72
2019-02-19T16:18:34.511Z,23.57
2019-02-19T16:21:25.647Z,23.57
2019-02-19T16:24:22.528Z,23.63
2019-02-19T16:27:10.534Z,23.63
2019-02-19T16:29:59.155Z,23.58
2019-02-19T16:32:47.264Z,23.60
2019-02-19T16:35:49.546Z,23.60
2019-02-19T16:38:37.084Z,23.57
2019-02-19T16:41:16.973Z,23.57
2019-02-19T16:44:07.120Z,23.47
2019-02-19T16:46:49.976Z,23.50
2019-02-19T16:49:38.593Z,23.55
2019-02-19T16:52:45.361Z,23.55
2019-02-19T16:55:26.490Z,23.58
2019-02-19T16:58:13.850Z,23.53
2019-02-19T17:00:59.553Z,23.50
2019-02-19T17:03:47.274Z,23.47
2019-02-19T17:06:34.842Z,23.51
2019-02-19T17:09:26.746Z,23.47
2019-02-19T17:12:16.966Z,23.43
2019-02-19T17:15:10.816Z,23.43
2019-02-19T17:18:17.146Z,23.46
2019-02-19T17:21:16.815Z,23.47
2019-02-19T17:23:52.311Z,23.43
2019-02-19T17:26:30.322Z,23.43
2019-02-19T17:29:13.592Z,23.41
2019-02-19T17:31:52.392Z,23.41
2019-02-19T17:34:31.688Z,23.43
2019-02-19T17:37:18.795Z,23.41
2019-02-19T17:40:07.392Z,23.39
2019-02-19T17:42:45.354Z,23.33
2019-02-19T17:45:33.985Z,23.38
2019-02-19T17:48:23.087Z,23.36
2019-02-19T17:51:20.609Z,23.38
2019-02-19T17:54:06.508Z,23.30
2019-02-19T17:57:01.997Z,23.28
2019-02-19T17:59:50.503Z,23.32
2019-02-19T18:02:26.819Z,23.30
2019-02-19T18:05:15.171Z,23.30
2019-02-19T18:08:02.546Z,23.28
2019-02-19T18:10:50.930Z,23.24
2019-02-19T18:13:32.456Z,23.26
2019-02-19T18:16:10.546Z,23.20
2019-02-19T18:18:52.369Z,23.23
2019-02-19T18:21:20.558Z,23.23
2019-02-19T18:23:48.634Z,23.22
2019-02-19T18:26:17.008Z,23.19
2019-02-19T18:28:45.845Z,23.00
2019-02-19T18:31:14.308Z,22.99
2019-02-19T18:33:43.195Z,23.15
2019-02-19T18:39:43.600Z,23.22
2019-02-19T18:42:11.895Z,23.24
2019-02-19T18:44:41.268Z,23.22
2019-02-19T18:50:58.556Z,23.16
2019-02-19T18:53:26.860Z,23.15
2019-02-19T18:55:58.705Z,23.15
2019-02-19T18:58:29.731Z,23.15
2019-02-19T19:00:58.005Z,23.15
2019-02-19T19:03:27.454Z,23.19
2019-02-19T19:05:56.736Z,23.09
2019-02-19T19:08:26.087Z,23.10
2019-02-19T19:10:54.269Z,23.16
2019-02-19T19:13:23.166Z,23.16
2019-02-19T19:15:52.499Z,23.11
2019-02-19T19:18:22.630Z,23.10
2019-02-19T19:20:53.987Z,23.18
2019-02-19T19:23:24.296Z,23.08
2019-02-19T19:25:53.007Z,23.07
2019-02-19T19:28:26.735Z,23.18
2019-02-19T19:30:58.572Z,23.15
2019-02-19T19:33:28.952Z,23.20
2019-02-19T19:35:58.240Z,23.20
2019-02-19T19:38:29.232Z,23.17
2019-02-19T19:40:57.839Z,23.32
2019-02-19T19:43:28.989Z,23.36
2019-02-19T19:45:58.017Z,23.36
2019-02-19T19:48:28.778Z,23.24
2019-02-19T19:50:58.880Z,23.35
2019-02-19T19:53:27.913Z,23.35
2019-02-19T19:56:02.512Z,23.34
2019-02-19T19:58:35.498Z,23.34
2019-02-19T20:01:05.832Z,23.25
2019-02-19T20:03:36.089Z,23.35
2019-02-19T20:06:06.576Z,23.37
2019-02-19T20:08:36.579Z,23.38
2019-02-19T20:11:07.927Z,23.47
2019-02-19T20:13:38.710Z,23.47
2019-02-19T20:16:07.367Z,23.44
2019-02-19T20:18:39.191Z,23.53
2019-02-19T20:21:45.166Z,23.38
2019-02-19T20:24:13.272Z,23.42
2019-02-19T20:26:41.524Z,23.40
2019-02-19T20:29:10.127Z,23.42
2019-02-19T20:31:39.012Z,23.40
2019-02-19T20:34:07.540Z,23.36
2019-02-19T20:36:36.260Z,23.47
2019-02-19T20:39:05.331Z,23.48
2019-02-19T20:41:34.236Z,23.48
2019-02-19T20:44:03.603Z,23.48
2019-02-19T20:46:34.404Z,23.58
2019-02-19T20:49:03.341Z,23.61
2019-02-19T20:51:36.289Z,23.62
2019-02-19T20:54:05.901Z,23.57
2019-02-19T20:56:35.232Z,23.52
2019-02-19T20:59:04.948Z,23.54
2019-02-19T21:01:34.673Z,23.69
2019-02-19T21:04:04.081Z,23.73
2019-02-19T21:06:33.659Z,23.75
2019-02-19T21:09:04.453Z,23.79
2019-02-19T21:11:32.963Z,23.77
2019-02-19T21:14:02.506Z,23.82
2019-02-19T21:16:30.960Z,23.70
2019-02-19T21:19:01.148Z,23.77
2019-02-19T21:21:31.869Z,23.73
2019-02-19T21:24:01.991Z,23.64
2019-02-19T21:26:32.476Z,23.74
2019-02-19T21:29:03.034Z,23.74
2019-02-19T21:31:31.879Z,23.76
2019-02-19T21:34:01.857Z,23.77
2019-02-19T21:36:31.620Z,23.77
2019-02-19T21:39:00.065Z,23.70
2019-02-19T21:41:28.239Z,23.67
2019-02-19T21:43:57.975Z,23.75
2019-02-19T21:46:27.876Z,23.73
2019-02-19T21:48:57.394Z,23.77
2019-02-19T21:51:25.987Z,23.70
2019-02-19T21:53:54.558Z,23.70
2019-02-19T21:56:23.024Z,23.77
2019-02-19T21:58:52.077Z,23.76
2019-02-19T22:01:20.125Z,23.71
2019-02-19T22:03:49.596Z,23.78
2019-02-19T22:06:17.908Z,23.71
2019-02-19T22:08:46.349Z,23.73
2019-02-19T22:11:15.615Z,23.78
2019-02-19T22:13:44.258Z,23.79
2019-02-19T22:16:13.657Z,23.78
2019-02-19T22:18:44.009Z,23.75
2019-02-19T22:21:29.566Z,23.78
2019-02-19T22:23:59.434Z,23.69
2019-02-19T22:26:29.624Z,23.70
2019-02-19T22:29:00.467Z,23.64
2019-02-19T22:31:29.590Z,23.56
2019-02-19T22:33:59.699Z,23.51
2019-02-19T22:36:29.557Z,23.48
2019-02-19T22:39:00.386Z,23.47
2019-02-19T22:41:33.235Z,23.47
2019-02-19T22:44:03.740Z,23.44
2019-02-19T22:46:33.655Z,23.43
2019-02-19T22:49:03.520Z,23.35
2019-02-19T22:51:31.467Z,23.33
2019-02-19T22:54:11.446Z,23.32
2019-02-19T22:56:41.850Z,23.30
2019-02-19T22:59:09.893Z,23.25
2019-02-19T23:01:44.469Z,23.27
2019-02-19T23:04:12.486Z,23.15
2019-02-19T23:06:40.786Z,23.19
2019-02-19T23:11:26.585Z,23.12
2019-02-19T23:13:54.245Z,23.13
2019-02-19T23:16:21.907Z,23.18
2019-02-19T23:18:49.586Z,23.08
2019-02-19T23:21:17.429Z,23.13
2019-02-19T23:23:45.187Z,23.08
2019-02-19T23:26:13.419Z,23.10
2019-02-19T23:28:42.051Z,23.08
2019-02-19T23:31:10.983Z,23.05
2019-02-19T23:33:39.408Z,23.03
2019-02-19T23:36:21.416Z,22.99
2019-02-19T23:38:52.582Z,22.98
2019-02-19T23:41:21.064Z,22.97
2019-02-19T23:43:50.979Z,22.89
2019-02-19T23:46:19.456Z,22.84
2019-02-19T23:48:48.373Z,22.90
2019-02-19T23:51:17.603Z,22.88
2019-02-19T23:53:47.106Z,22.89
2019-02-19T23:56:17.627Z,22.90
2019-02-19T23:58:47.782Z,22.94
